Time;durP1;ratioP1;P1;durP2;ratioP2;P2;SDS_P1;SDS_P2;PMS_P1;PMS_P2;Temp;Humidity;BMP_temperature;BMP_pressure;BME280_temperature;BME280_humidity;BME280_pressure;Samples;Min_cycle;Max_cycle;Signal;HPM_P1;HPM_P2
2022/09/18 00:00:27;;;;;;;;;5.50;5.00;;;;;;;;5102182;27;62029;-78
2022/09/18 00:02:53;;;;;;;;;4.50;4.25;;;;;;;;5103439;27;62038;-77
2022/09/18 00:05:18;;;;;;;;;3.00;3.00;;;;;;;;5101775;27;61845;-78
2022/09/18 00:07:43;;;;;;;;;8.75;4.50;;;;;;;;5103800;27;61834;-78
2022/09/18 00:10:08;;;;;;;;;5.50;4.00;;;;;;;;5101334;27;63716;-78
2022/09/18 00:12:34;;;;;;;;;7.25;5.25;;;;;;;;5101641;27;61929;-78
2022/09/18 00:14:59;;;;;;;;;8.75;6.25;;;;;;;;5101521;27;61639;-78
2022/09/18 00:17:24;;;;;;;;;4.00;4.00;;;;;;;;5102000;27;61783;-78
2022/09/18 00:19:50;;;;;;;;;5.50;3.50;;;;;;;;5101483;27;63890;-78
2022/09/18 00:22:15;;;;;;;;;6.00;4.00;;;;;;;;5102749;27;62009;-78
2022/09/18 00:24:40;;;;;;;;;5.00;4.50;;;;;;;;5101453;27;61890;-78
2022/09/18 00:27:05;;;;;;;;;7.50;4.00;;;;;;;;5103346;27;61741;-78
2022/09/18 00:29:30;;;;;;;;;10.25;4.25;;;;;;;;5102309;27;63399;-78
2022/09/18 00:31:56;;;;;;;;;3.50;3.00;;;;;;;;5101407;27;61926;-77
2022/09/18 00:34:21;;;;;;;;;7.25;4.50;;;;;;;;5102812;27;61867;-78
2022/09/18 00:36:47;;;;;;;;;7.25;3.25;;;;;;;;5103379;27;61768;-78
2022/09/18 00:39:13;;;;;;;;;4.00;4.00;;;;;;;;5100843;27;63650;-78
2022/09/18 00:41:39;;;;;;;;;3.00;3.00;;;;;;;;5102709;27;62310;-78
2022/09/18 00:44:23;;;;;;;;;2.75;2.25;;;;;;;;5102896;27;61901;-78
2022/09/18 00:46:49;;;;;;;;;4.00;4.00;;;;;;;;5102711;27;61925;-78
2022/09/18 00:49:17;;;;;;;;;8.75;4.50;;;;;;;;5100798;27;63516;-77
2022/09/18 00:51:43;;;;;;;;;5.00;3.25;;;;;;;;5101618;27;61717;-78
2022/09/18 00:54:30;;;;;;;;;4.00;3.75;;;;;;;;5100833;27;61810;-78
2022/09/18 00:56:58;;;;;;;;;3.00;3.00;;;;;;;;5103105;27;61891;-78
2022/09/18 00:59:28;;;;;;;;;3.75;3.75;;;;;;;;5101834;27;62039;-78
2022/09/18 01:01:54;;;;;;;;;7.50;4.00;;;;;;;;5102577;27;61793;-78
2022/09/18 01:04:19;;;;;;;;;8.25;3.25;;;;;;;;5101330;27;61765;-78
2022/09/18 01:07:00;;;;;;;;;9.00;4.00;;;;;;;;5101617;27;61713;-77
2022/09/18 01:09:28;;;;;;;;;6.00;4.25;;;;;;;;5101718;27;63015;-78
2022/09/18 01:11:59;;;;;;;;;6.00;5.00;;;;;;;;5103163;27;62388;-78
2022/09/18 01:14:32;;;;;;;;;7.50;3.75;;;;;;;;5104605;27;61768;-78
2022/09/18 01:17:04;;;;;;;;;2.75;2.00;;;;;;;;5104543;27;62718;-77
2022/09/18 01:19:46;;;;;;;;;5.75;4.00;;;;;;;;5105246;27;61930;-78
2022/09/18 01:22:14;;;;;;;;;3.00;3.00;;;;;;;;5104523;27;62185;-78
2022/09/18 01:24:45;;;;;;;;;4.75;2.75;;;;;;;;5105364;27;61919;-78
2022/09/18 01:27:16;;;;;;;;;5.50;3.00;;;;;;;;5104963;27;62170;-78
2022/09/18 01:29:46;;;;;;;;;2.50;2.50;;;;;;;;5103765;27;64032;-78
2022/09/18 01:32:17;;;;;;;;;5.50;5.50;;;;;;;;5105550;27;62225;-78
2022/09/18 01:34:55;;;;;;;;;5.75;4.75;;;;;;;;5104130;27;61803;-78
2022/09/18 01:37:20;;;;;;;;;3.00;3.00;;;;;;;;5104729;27;62087;-78
2022/09/18 01:39:50;;;;;;;;;4.00;3.25;;;;;;;;5103378;27;64808;-78
2022/09/18 01:42:17;;;;;;;;;3.25;3.25;;;;;;;;5104306;27;62122;-78
2022/09/18 01:44:44;;;;;;;;;3.75;3.75;;;;;;;;5103860;27;61864;-78
2022/09/18 01:47:12;;;;;;;;;5.75;3.75;;;;;;;;5104371;27;62030;-78
2022/09/18 01:49:41;;;;;;;;;4.75;3.25;;;;;;;;5104707;27;62257;-78
2022/09/18 01:52:09;;;;;;;;;4.00;4.00;;;;;;;;5104310;27;61841;-78
2022/09/18 01:54:36;;;;;;;;;6.25;3.00;;;;;;;;5104871;27;61871;-78
2022/09/18 01:57:07;;;;;;;;;7.00;4.50;;;;;;;;5106046;27;61850;-78
2022/09/18 01:59:42;;;;;;;;;6.00;5.00;;;;;;;;5104724;27;61993;-78
2022/09/18 02:02:10;;;;;;;;;2.00;2.00;;;;;;;;5103742;27;61951;-78
2022/09/18 02:04:37;;;;;;;;;5.75;3.00;;;;;;;;5105444;27;61889;-78
2022/09/18 02:07:10;;;;;;;;;7.75;3.75;;;;;;;;5104326;27;62080;-78
2022/09/18 02:09:36;;;;;;;;;3.75;3.75;;;;;;;;5104327;27;62172;-78
2022/09/18 02:12:03;;;;;;;;;5.00;3.75;;;;;;;;5105339;27;61741;-77
2022/09/18 02:14:32;;;;;;;;;3.00;3.00;;;;;;;;5103786;27;61966;-78
2022/09/18 02:17:05;;;;;;;;;3.50;3.50;;;;;;;;5103796;27;61942;-78
2022/09/18 02:19:41;;;;;;;;;2.25;1.25;;;;;;;;5103210;27;64944;-78
2022/09/18 02:22:11;;;;;;;;;3.00;3.00;;;;;;;;5104900;27;62079;-78
2022/09/18 02:24:39;;;;;;;;;5.00;2.00;;;;;;;;5102760;27;61914;-78
2022/09/18 02:27:06;;;;;;;;;9.00;3.00;;;;;;;;5105568;27;61996;-78
2022/09/18 02:29:32;;;;;;;;;2.00;2.00;;;;;;;;5104445;27;61804;-77
2022/09/18 02:31:58;;;;;;;;;2.50;2.25;;;;;;;;5104635;27;61740;-78
2022/09/18 02:34:24;;;;;;;;;7.25;2.25;;;;;;;;5103637;27;61872;-78
2022/09/18 02:36:56;;;;;;;;;5.00;4.00;;;;;;;;5103229;27;61840;-78
2022/09/18 02:39:29;;;;;;;;;5.00;2.25;;;;;;;;5102720;27;63553;-78
2022/09/18 02:42:09;;;;;;;;;7.25;2.25;;;;;;;;5104829;27;61767;-77
2022/09/18 02:44:39;;;;;;;;;4.00;2.00;;;;;;;;5103526;27;62012;-78
2022/09/18 02:47:17;;;;;;;;;3.50;2.00;;;;;;;;5104652;27;61830;-78
2022/09/18 02:49:54;;;;;;;;;1.00;1.00;;;;;;;;5102613;27;64731;-77
2022/09/18 02:52:42;;;;;;;;;1.75;1.75;;;;;;;;5104505;27;61817;-78
2022/09/18 02:55:15;;;;;;;;;1.25;1.25;;;;;;;;5102134;27;61754;-78
2022/09/18 02:57:45;;;;;;;;;2.50;1.50;;;;;;;;5104756;27;61747;-78
2022/09/18 03:00:15;;;;;;;;;1.75;1.75;;;;;;;;5103637;27;61995;-78
2022/09/18 03:02:41;;;;;;;;;2.00;2.00;;;;;;;;5103107;27;61964;-78
2022/09/18 03:05:06;;;;;;;;;2.50;1.00;;;;;;;;5102921;27;61826;-77
2022/09/18 03:07:31;;;;;;;;;2.00;2.00;;;;;;;;5102980;27;61825;-78
2022/09/18 03:09:57;;;;;;;;;4.00;1.00;;;;;;;;5102067;27;63671;-78
2022/09/18 03:12:22;;;;;;;;;1.75;1.75;;;;;;;;5104193;27;61738;-78
2022/09/18 03:14:47;;;;;;;;;4.25;4.25;;;;;;;;5104110;27;61711;-78
2022/09/18 03:17:13;;;;;;;;;2.00;2.00;;;;;;;;5102930;27;61836;-78
2022/09/18 03:19:38;;;;;;;;;1.00;1.00;;;;;;;;5103675;27;61753;-78
2022/09/18 03:22:04;;;;;;;;;2.00;2.00;;;;;;;;5101985;27;62005;-78
2022/09/18 03:24:30;;;;;;;;;1.75;1.75;;;;;;;;5102563;27;62142;-78
2022/09/18 03:26:55;;;;;;;;;2.50;2.50;;;;;;;;5104159;27;62035;-78
2022/09/18 03:29:20;;;;;;;;;2.00;2.00;;;;;;;;5103284;27;61833;-78
2022/09/18 03:31:45;;;;;;;;;3.50;3.50;;;;;;;;5102523;27;61983;-78
2022/09/18 03:34:11;;;;;;;;;2.25;2.25;;;;;;;;5103398;27;61719;-78
2022/09/18 03:36:36;;;;;;;;;2.75;2.75;;;;;;;;5103593;27;61984;-78
2022/09/18 03:39:01;;;;;;;;;3.50;2.00;;;;;;;;5101676;27;64627;-78
2022/09/18 03:41:26;;;;;;;;;3.00;3.00;;;;;;;;5102541;27;61868;-78
2022/09/18 03:43:52;;;;;;;;;8.75;4.50;;;;;;;;5103873;27;61849;-78
2022/09/18 03:46:26;;;;;;;;;4.00;3.00;;;;;;;;5103672;27;61812;-78
2022/09/18 03:48:52;;;;;;;;;6.50;4.00;;;;;;;;5103219;27;62934;-78
2022/09/18 03:51:18;;;;;;;;;2.25;2.25;;;;;;;;5103325;27;61848;-78
2022/09/18 03:53:44;;;;;;;;;5.00;4.00;;;;;;;;5101741;27;61762;-77
2022/09/18 03:56:09;;;;;;;;;6.75;4.25;;;;;;;;5102318;27;61794;-78
2022/09/18 03:58:35;;;;;;;;;3.50;3.50;;;;;;;;5103236;27;61913;-78
2022/09/18 04:01:00;;;;;;;;;4.00;2.00;;;;;;;;5101517;27;61803;-78
2022/09/18 04:03:25;;;;;;;;;3.75;2.25;;;;;;;;5102012;27;61788;-78
2022/09/18 04:05:50;;;;;;;;;7.00;3.50;;;;;;;;5103606;27;62144;-78
2022/09/18 04:08:16;;;;;;;;;7.50;3.00;;;;;;;;5102438;27;62981;-78
2022/09/18 04:10:42;;;;;;;;;7.25;3.75;;;;;;;;5103474;27;61814;-78
2022/09/18 04:13:07;;;;;;;;;6.75;4.00;;;;;;;;5101783;27;61849;-78
2022/09/18 04:15:32;;;;;;;;;3.00;2.25;;;;;;;;5103336;27;61962;-77
2022/09/18 04:17:57;;;;;;;;;3.00;3.00;;;;;;;;5101175;27;63887;-78
2022/09/18 04:20:23;;;;;;;;;4.00;4.00;;;;;;;;5102909;27;61709;-77
2022/09/18 04:22:48;;;;;;;;;3.00;3.00;;;;;;;;5103031;27;61886;-77
2022/09/18 04:25:14;;;;;;;;;11.00;4.50;;;;;;;;5102869;27;61718;-77
2022/09/18 04:27:39;;;;;;;;;3.00;2.00;;;;;;;;5102713;27;62073;-77
2022/09/18 04:30:06;;;;;;;;;2.00;2.00;;;;;;;;5102646;27;61840;-77
2022/09/18 04:32:33;;;;;;;;;4.00;4.00;;;;;;;;5102825;27;61859;-78
2022/09/18 04:35:04;;;;;;;;;3.00;3.00;;;;;;;;5101646;27;61816;-78
2022/09/18 04:37:29;;;;;;;;;2.50;2.00;;;;;;;;5100955;27;64650;-78
2022/09/18 04:39:55;;;;;;;;;2.50;2.00;;;;;;;;5101370;27;61729;-78
2022/09/18 04:42:21;;;;;;;;;4.00;2.00;;;;;;;;5101572;27;61681;-78
2022/09/18 04:44:46;;;;;;;;;2.25;2.25;;;;;;;;5102804;27;61885;-78
2022/09/18 04:47:12;;;;;;;;;3.00;3.00;;;;;;;;5100220;27;63897;-78
2022/09/18 04:49:37;;;;;;;;;3.25;3.00;;;;;;;;5100949;27;61844;-78
2022/09/18 04:52:02;;;;;;;;;2.00;2.00;;;;;;;;5101435;27;61939;-78
2022/09/18 04:54:27;;;;;;;;;2.00;2.00;;;;;;;;5102319;27;61952;-78
2022/09/18 04:56:53;;;;;;;;;3.00;3.00;;;;;;;;5100165;27;64515;-78
2022/09/18 04:59:18;;;;;;;;;3.50;3.50;;;;;;;;5102362;27;61746;-77
2022/09/18 05:01:43;;;;;;;;;2.50;2.00;;;;;;;;5102445;27;61702;-78
2022/09/18 05:04:09;;;;;;;;;6.00;3.00;;;;;;;;5101087;27;62343;-78
2022/09/18 05:06:34;;;;;;;;;4.75;3.00;;;;;;;;5100576;27;63728;-78
2022/09/18 05:09:00;;;;;;;;;3.25;3.25;;;;;;;;5102681;27;61835;-78
2022/09/18 05:11:25;;;;;;;;;4.50;2.00;;;;;;;;5102444;27;61768;-78
2022/09/18 05:13:55;;;;;;;;;2.00;2.00;;;;;;;;5101429;27;61799;-78
2022/09/18 05:16:20;;;;;;;;;2.75;2.75;;;;;;;;5101205;27;62987;-78
2022/09/18 05:18:45;;;;;;;;;1.00;1.00;;;;;;;;5102670;27;61872;-78
2022/09/18 05:21:12;;;;;;;;;3.00;2.25;;;;;;;;5102754;27;62067;-78
2022/09/18 05:23:38;;;;;;;;;3.50;1.50;;;;;;;;5100685;27;62208;-78
2022/09/18 05:26:04;;;;;;;;;3.00;1.00;;;;;;;;5101771;27;61889;-78
2022/09/18 05:28:29;;;;;;;;;2.00;2.00;;;;;;;;5102093;27;61832;-78
2022/09/18 05:30:58;;;;;;;;;1.00;1.00;;;;;;;;5100527;27;61867;-78
2022/09/18 05:33:25;;;;;;;;;2.00;2.00;;;;;;;;5100854;27;61749;-78
2022/09/18 05:35:52;;;;;;;;;3.00;3.00;;;;;;;;5101644;27;61851;-78
2022/09/18 05:38:17;;;;;;;;;3.00;3.00;;;;;;;;5102268;27;61785;-78
2022/09/18 05:40:43;;;;;;;;;2.00;2.00;;;;;;;;5100829;27;61840;-78
2022/09/18 05:43:08;;;;;;;;;3.00;1.50;;;;;;;;5100895;27;62134;-78
2022/09/18 05:45:34;;;;;;;;;1.75;1.75;;;;;;;;5100721;27;63130;-78
2022/09/18 05:48:04;;;;;;;;;1.00;1.00;;;;;;;;5100521;27;61846;-79
2022/09/18 05:50:30;;;;;;;;;2.50;2.50;;;;;;;;5100587;27;61897;-77
2022/09/18 05:52:56;;;;;;;;;1.25;0.75;;;;;;;;5100893;27;61807;-77
2022/09/18 05:55:22;;;;;;;;;2.00;2.00;;;;;;;;5100855;27;63314;-78
2022/09/18 05:57:50;;;;;;;;;2.00;1.50;;;;;;;;5100753;27;61823;-78
2022/09/18 06:00:15;;;;;;;;;3.25;2.25;;;;;;;;5102942;27;61975;-77
2022/09/18 06:02:41;;;;;;;;;2.75;2.75;;;;;;;;5103810;27;62179;-78
2022/09/18 06:05:06;;;;;;;;;3.00;1.00;;;;;;;;5099411;27;64295;-78
2022/09/18 06:07:31;;;;;;;;;2.75;2.75;;;;;;;;5103047;27;61764;-78
2022/09/18 06:09:57;;;;;;;;;1.00;1.00;;;;;;;;5103092;27;62084;-77
2022/09/18 06:12:22;;;;;;;;;1.00;1.00;;;;;;;;5104694;27;61718;-78
2022/09/18 06:14:48;;;;;;;;;4.25;3.00;;;;;;;;5101759;27;64838;-78
2022/09/18 06:17:13;;;;;;;;;3.00;1.00;;;;;;;;5104011;27;61954;-78
2022/09/18 06:19:38;;;;;;;;;3.25;2.75;;;;;;;;5104422;27;61781;-78
2022/09/18 06:22:03;;;;;;;;;5.25;3.00;;;;;;;;5104005;27;61770;-77
2022/09/18 06:24:29;;;;;;;;;2.00;2.00;;;;;;;;5102410;27;63819;-77
2022/09/18 06:26:54;;;;;;;;;3.00;1.75;;;;;;;;5104319;27;61851;-77
2022/09/18 06:29:19;;;;;;;;;4.00;3.00;;;;;;;;5102834;27;62197;-77
2022/09/18 06:31:45;;;;;;;;;4.00;3.00;;;;;;;;5102548;27;62040;-77
2022/09/18 06:34:10;;;;;;;;;4.25;2.00;;;;;;;;5102291;27;63546;-79
2022/09/18 06:36:35;;;;;;;;;2.00;2.00;;;;;;;;5103816;27;62032;-79
2022/09/18 06:39:00;;;;;;;;;8.75;2.25;;;;;;;;5104474;27;61899;-79
2022/09/18 06:41:26;;;;;;;;;3.00;2.00;;;;;;;;5104481;27;61713;-77
2022/09/18 06:43:51;;;;;;;;;3.00;2.00;;;;;;;;5101468;27;63741;-77
2022/09/18 06:46:16;;;;;;;;;2.00;1.00;;;;;;;;5103806;27;61770;-78
2022/09/18 06:48:42;;;;;;;;;1.00;1.00;;;;;;;;5104230;27;61829;-77
2022/09/18 06:51:08;;;;;;;;;3.00;2.00;;;;;;;;5102843;27;61809;-78
2022/09/18 06:53:33;;;;;;;;;2.00;2.00;;;;;;;;5101026;27;64475;-75
2022/09/18 06:56:00;;;;;;;;;1.00;1.00;;;;;;;;5102356;27;61894;-77
2022/09/18 06:58:26;;;;;;;;;4.75;2.50;;;;;;;;5103839;27;61866;-77
2022/09/18 07:00:51;;;;;;;;;1.00;1.00;;;;;;;;5102454;27;62148;-75
2022/09/18 07:03:16;;;;;;;;;1.00;1.00;;;;;;;;5103816;27;61865;-78
2022/09/18 07:05:44;;;;;;;;;2.00;2.00;;;;;;;;5104326;27;61833;-75
2022/09/18 07:08:09;;;;;;;;;2.00;2.00;;;;;;;;5102955;27;61947;-74
2022/09/18 07:10:34;;;;;;;;;3.25;1.25;;;;;;;;5101974;27;61930;-74
2022/09/18 07:13:01;;;;;;;;;3.00;2.00;;;;;;;;5103253;27;62475;-76
2022/09/18 07:15:26;;;;;;;;;3.00;2.50;;;;;;;;5103519;27;61688;-77
2022/09/18 07:17:55;;;;;;;;;3.00;2.00;;;;;;;;5102886;27;61910;-75
2022/09/18 07:20:21;;;;;;;;;2.25;2.00;;;;;;;;5103788;27;61810;-80
2022/09/18 07:22:57;;;;;;;;;1.00;1.00;;;;;;;;5098009;27;61987;-80
2022/09/18 07:25:23;;;;;;;;;3.00;1.00;;;;;;;;5098649;27;61915;-80
2022/09/18 07:27:48;;;;;;;;;2.50;1.25;;;;;;;;5102001;27;61766;-79
2022/09/18 07:30:14;;;;;;;;;4.25;2.00;;;;;;;;5102592;27;61793;-76
2022/09/18 07:32:39;;;;;;;;;1.50;1.50;;;;;;;;5102921;27;61797;-80
2022/09/18 07:35:04;;;;;;;;;2.00;2.00;;;;;;;;5103660;27;62005;-76
2022/09/18 07:37:30;;;;;;;;;0.50;0.50;;;;;;;;5103919;27;61729;-76
2022/09/18 07:39:55;;;;;;;;;1.25;1.25;;;;;;;;5102484;27;62140;-76
2022/09/18 07:42:20;;;;;;;;;1.75;1.75;;;;;;;;5101684;27;64990;-76
2022/09/18 07:44:45;;;;;;;;;2.00;2.00;;;;;;;;5101921;27;61943;-75
2022/09/18 07:47:11;;;;;;;;;5.00;1.75;;;;;;;;5101249;27;61959;-76
2022/09/18 07:49:37;;;;;;;;;3.50;2.00;;;;;;;;5102412;27;61812;-80
2022/09/18 07:52:03;;;;;;;;;2.25;2.25;;;;;;;;5102715;27;62893;-77
2022/09/18 07:54:28;;;;;;;;;2.25;1.00;;;;;;;;5101510;27;61713;-77
2022/09/18 07:56:53;;;;;;;;;1.00;1.00;;;;;;;;5101646;27;61929;-76
2022/09/18 07:59:18;;;;;;;;;1.00;1.00;;;;;;;;5102156;27;62064;-76
2022/09/18 08:01:44;;;;;;;;;0.75;0.75;;;;;;;;5102724;27;61973;-77
2022/09/18 08:04:09;;;;;;;;;1.50;1.50;;;;;;;;5101489;27;62140;-79
2022/09/18 08:06:34;;;;;;;;;3.50;2.00;;;;;;;;5102010;27;61907;-78
2022/09/18 08:09:00;;;;;;;;;1.25;1.25;;;;;;;;5103187;27;61916;-77
2022/09/18 08:11:25;;;;;;;;;3.25;2.00;;;;;;;;5102593;27;62873;-76
2022/09/18 08:13:50;;;;;;;;;4.00;2.50;;;;;;;;5103252;27;61842;-83
2022/09/18 08:16:15;;;;;;;;;4.00;3.00;;;;;;;;5102834;27;61883;-77
2022/09/18 08:18:41;;;;;;;;;2.00;2.00;;;;;;;;5101359;27;61800;-76
2022/09/18 08:21:06;;;;;;;;;2.50;1.50;;;;;;;;5100543;27;63029;-76
2022/09/18 08:23:32;;;;;;;;;2.25;1.25;;;;;;;;5102032;27;62093;-76
2022/09/18 08:26:01;;;;;;;;;3.00;2.50;;;;;;;;5101513;27;61940;-76
2022/09/18 08:28:26;;;;;;;;;2.00;1.00;;;;;;;;5102012;27;61679;-76
2022/09/18 08:31:01;;;;;;;;;1.00;1.00;;;;;;;;5100168;27;61875;-75
2022/09/18 08:33:26;;;;;;;;;2.00;2.00;;;;;;;;5099458;27;62174;-77
2022/09/18 08:35:51;;;;;;;;;1.75;1.75;;;;;;;;5099532;27;61926;-76
2022/09/18 08:38:16;;;;;;;;;2.00;2.00;;;;;;;;5099482;27;61902;-77
2022/09/18 08:40:58;;;;;;;;;2.00;2.00;;;;;;;;5099137;27;65030;-77
2022/09/18 08:43:27;;;;;;;;;1.50;1.50;;;;;;;;5098383;27;61935;-77
2022/09/18 08:45:59;;;;;;;;;4.00;2.25;;;;;;;;5101114;27;61860;-77
2022/09/18 08:48:36;;;;;;;;;2.75;1.50;;;;;;;;5098362;27;61977;-76
2022/09/18 08:51:05;;;;;;;;;1.25;1.25;;;;;;;;5100351;27;61773;-76
2022/09/18 08:53:37;;;;;;;;;2.00;2.00;;;;;;;;5101585;27;61864;-77
2022/09/18 08:56:04;;;;;;;;;3.75;1.75;;;;;;;;5098233;27;62001;-76
2022/09/18 08:58:34;;;;;;;;;1.50;1.00;;;;;;;;5101034;27;61797;-75
2022/09/18 09:01:02;;;;;;;;;1.00;1.00;;;;;;;;5100082;27;62187;-75
2022/09/18 09:03:30;;;;;;;;;1.00;1.00;;;;;;;;5099397;27;61784;-75
2022/09/18 09:06:18;;;;;;;;;1.25;1.25;;;;;;;;5100411;27;61910;-80
2022/09/18 09:09:00;;;;;;;;;1.25;1.00;;;;;;;;5100420;27;62383;-76
2022/09/18 09:11:37;;;;;;;;;3.75;2.25;;;;;;;;5098120;27;63729;-76
2022/09/18 09:14:17;;;;;;;;;1.00;1.00;;;;;;;;5099855;27;62148;-77
2022/09/18 09:16:44;;;;;;;;;1.50;1.25;;;;;;;;5100378;27;61884;-76
2022/09/18 09:19:26;;;;;;;;;2.25;1.25;;;;;;;;5098782;27;61787;-76
2022/09/18 09:22:12;;;;;;;;;2.50;0.75;;;;;;;;5099066;27;61933;-76
2022/09/18 09:24:47;;;;;;;;;2.00;1.00;;;;;;;;5096681;27;61915;-76
2022/09/18 09:27:19;;;;;;;;;2.75;1.75;;;;;;;;5101021;27;61888;-76
2022/09/18 09:29:45;;;;;;;;;0.75;0.75;;;;;;;;5102199;27;61687;-76
2022/09/18 09:32:16;;;;;;;;;0.75;0.75;;;;;;;;5098376;27;63006;-76
2022/09/18 09:34:51;;;;;;;;;1.00;1.00;;;;;;;;5104770;27;62147;-77
2022/09/18 09:37:22;;;;;;;;;0.00;0.00;;;;;;;;5102316;27;61892;-78
2022/09/18 09:39:55;;;;;;;;;0.00;0.00;;;;;;;;5104196;27;62037;-76
2022/09/18 09:42:24;;;;;;;;;1.25;1.25;;;;;;;;5103520;27;63724;-75
2022/09/18 09:44:52;;;;;;;;;2.00;2.00;;;;;;;;5103974;27;62062;-76
2022/09/18 09:47:22;;;;;;;;;0.50;0.00;;;;;;;;5103863;27;62053;-75
2022/09/18 09:50:11;;;;;;;;;1.25;0.50;;;;;;;;5101705;27;61784;-75
2022/09/18 09:52:38;;;;;;;;;0.25;0.25;;;;;;;;5102269;27;63173;-75
2022/09/18 09:55:17;;;;;;;;;0.50;0.50;;;;;;;;5102193;27;62198;-75
2022/09/18 09:57:49;;;;;;;;;0.50;0.50;;;;;;;;5102730;27;62022;-76
2022/09/18 10:00:18;;;;;;;;;0.00;0.00;;;;;;;;5102978;27;61868;-76
2022/09/18 10:02:51;;;;;;;;;0.00;0.00;;;;;;;;5103324;27;64209;-76
2022/09/18 10:05:17;;;;;;;;;3.00;1.00;;;;;;;;5103929;27;62010;-77
2022/09/18 10:07:48;;;;;;;;;0.00;0.00;;;;;;;;5102172;27;61792;-76
2022/09/18 10:10:19;;;;;;;;;2.00;0.00;;;;;;;;5104174;27;62171;-76
2022/09/18 10:12:53;;;;;;;;;0.00;0.00;;;;;;;;5100169;27;64976;-76
2022/09/18 10:15:24;;;;;;;;;0.00;0.00;;;;;;;;5104339;27;61691;-77
2022/09/18 10:17:51;;;;;;;;;0.00;0.00;;;;;;;;5103319;27;61846;-77
2022/09/18 10:20:19;;;;;;;;;0.00;0.00;;;;;;;;5103928;27;62363;-78
2022/09/18 10:22:45;;;;;;;;;0.00;0.00;;;;;;;;5103345;27;62875;-80
2022/09/18 10:25:46;;;;;;;;;1.00;1.00;;;;;;;;5102892;27;61832;-77
2022/09/18 10:28:12;;;;;;;;;1.50;1.00;;;;;;;;5036747;28;62623;-78
2022/09/18 10:30:58;;;;;;;;;0.50;0.50;;;;;;;;5040430;28;61939;-78
2022/09/18 10:33:35;;;;;;;;;1.00;1.00;;;;;;;;5019549;28;63308;-78
2022/09/18 10:36:01;;;;;;;;;0.00;0.00;;;;;;;;5019783;28;62184;-78
2022/09/18 10:38:31;;;;;;;;;1.00;1.00;;;;;;;;5023017;28;61969;-78
2022/09/18 10:41:09;;;;;;;;;0.50;0.00;;;;;;;;5022744;28;62186;-79
2022/09/18 10:43:35;;;;;;;;;0.00;0.00;;;;;;;;5021690;28;63287;-78
2022/09/18 10:46:01;;;;;;;;;0.75;0.75;;;;;;;;5021639;28;62009;-78
2022/09/18 10:48:26;;;;;;;;;0.25;0.25;;;;;;;;5037246;28;62076;-78
2022/09/18 10:50:53;;;;;;;;;0.00;0.00;;;;;;;;5023092;28;62814;-78
2022/09/18 10:53:31;;;;;;;;;9.75;6.75;;;;;;;;5020995;28;64822;-78
2022/09/18 10:56:02;;;;;;;;;3.75;3.00;;;;;;;;5021561;28;62014;-75
2022/09/18 10:58:29;;;;;;;;;2.25;2.25;;;;;;;;5040333;28;62003;-78
2022/09/18 11:00:59;;;;;;;;;2.00;2.00;;;;;;;;5039503;28;61867;-77
2022/09/18 11:03:33;;;;;;;;;11.25;8.00;;;;;;;;5101317;27;64852;-79
2022/09/18 11:06:01;;;;;;;;;3.00;3.00;;;;;;;;5104215;27;62017;-78
2022/09/18 11:08:32;;;;;;;;;3.00;1.00;;;;;;;;5103095;27;62105;-78
2022/09/18 11:11:03;;;;;;;;;3.75;2.75;;;;;;;;5104478;27;61938;-78
2022/09/18 11:13:29;;;;;;;;;9.00;7.25;;;;;;;;5103616;27;62004;-81
2022/09/18 11:15:58;;;;;;;;;5.00;3.25;;;;;;;;5102463;27;61707;-79
2022/09/18 11:18:24;;;;;;;;;7.75;6.25;;;;;;;;5103171;27;61816;-77
2022/09/18 11:20:50;;;;;;;;;4.00;3.00;;;;;;;;5103043;27;62006;-78
2022/09/18 11:23:26;;;;;;;;;4.25;2.75;;;;;;;;5101788;27;64082;-80
2022/09/18 11:26:08;;;;;;;;;2.50;2.25;;;;;;;;5129514;27;61864;-78
2022/09/18 11:28:33;;;;;;;;;4.00;4.00;;;;;;;;5102859;27;62380;-78
2022/09/18 11:31:00;;;;;;;;;6.75;4.50;;;;;;;;5110740;27;62089;-78
2022/09/18 11:33:26;;;;;;;;;1.00;1.00;;;;;;;;5116202;27;63794;-77
2022/09/18 11:36:03;;;;;;;;;2.75;2.00;;;;;;;;5117150;27;62000;-79
2022/09/18 11:38:29;;;;;;;;;2.00;2.00;;;;;;;;5103569;27;61878;-78
2022/09/18 11:40:56;;;;;;;;;4.50;3.25;;;;;;;;5099281;27;62017;-79
2022/09/18 11:43:27;;;;;;;;;1.00;1.00;;;;;;;;5104657;27;64966;-78
2022/09/18 11:45:55;;;;;;;;;2.00;2.00;;;;;;;;5110780;27;62221;-77
2022/09/18 11:48:30;;;;;;;;;1.00;1.00;;;;;;;;5102281;27;62132;-77
2022/09/18 11:50:58;;;;;;;;;3.00;1.50;;;;;;;;5101286;27;61936;-78
2022/09/18 11:53:27;;;;;;;;;1.00;1.00;;;;;;;;5100439;27;62052;-78
2022/09/18 11:56:03;;;;;;;;;0.67;0.67;;;;;;;;5101024;27;62034;-76
2022/09/18 11:58:32;;;;;;;;;2.50;1.00;;;;;;;;5100164;27;61935;-76
2022/09/18 12:01:04;;;;;;;;;1.00;1.00;;;;;;;;5100568;27;61753;-78
2022/09/18 12:03:33;;;;;;;;;1.50;1.00;;;;;;;;5097312;27;63833;-82
2022/09/18 12:06:05;;;;;;;;;2.00;2.00;;;;;;;;5099099;27;62014;-78
2022/09/18 12:08:30;;;;;;;;;1.00;1.00;;;;;;;;5100606;27;61805;-79
2022/09/18 12:11:16;;;;;;;;;0.75;0.75;;;;;;;;5100819;27;62079;-78
2022/09/18 12:13:48;;;;;;;;;1.50;0.00;;;;;;;;5097894;27;64795;-79
2022/09/18 12:16:29;;;;;;;;;0.00;0.00;;;;;;;;5099795;27;61963;-79
2022/09/18 12:18:54;;;;;;;;;1.75;1.00;;;;;;;;5081719;28;61968;-80
2022/09/18 12:21:25;;;;;;;;;2.00;2.00;;;;;;;;5082039;27;61807;-79
2022/09/18 12:23:50;;;;;;;;;2.00;2.00;;;;;;;;5100726;27;63470;-79
2022/09/18 12:26:29;;;;;;;;;3.75;1.75;;;;;;;;5102834;27;62162;-80
2022/09/18 12:29:03;;;;;;;;;1.00;1.00;;;;;;;;5100972;27;62314;-75
2022/09/18 12:31:39;;;;;;;;;2.67;1.00;;;;;;;;5101457;27;61821;-77
2022/09/18 12:34:10;;;;;;;;;0.00;0.00;;;;;;;;5100547;27;63712;-79
2022/09/18 12:36:48;;;;;;;;;2.00;1.00;;;;;;;;5102137;27;61891;-78
2022/09/18 12:39:23;;;;;;;;;1.67;0.67;;;;;;;;5102917;27;61813;-77
2022/09/18 12:42:07;;;;;;;;;0.00;0.00;;;;;;;;5101815;27;61757;-78
2022/09/18 12:45:02;;;;;;;;;0.00;0.00;;;;;;;;5099053;27;64064;-78
2022/09/18 12:47:36;;;;;;;;;1.33;1.00;;;;;;;;5106195;27;61895;-78
2022/09/18 12:50:11;;;;;;;;;0.67;0.67;;;;;;;;5096928;27;61841;-86
2022/09/18 12:52:48;;;;;;;;;0.00;0.00;;;;;;;;5082486;27;61751;-78
2022/09/18 12:55:21;;;;;;;;;0.00;0.00;;;;;;;;5081115;28;62124;-78
2022/09/18 12:58:05;;;;;;;;;0.67;0.67;;;;;;;;5099058;27;62259;-78
2022/09/18 13:00:30;;;;;;;;;2.33;0.00;;;;;;;;5101219;27;61993;-78
2022/09/18 13:02:58;;;;;;;;;3.00;0.00;;;;;;;;5102580;27;61837;-77
2022/09/18 13:05:29;;;;;;;;;1.00;1.00;;;;;;;;5100427;27;63882;-78
2022/09/18 13:07:55;;;;;;;;;0.00;0.00;;;;;;;;5103543;27;61683;-77
2022/09/18 13:10:26;;;;;;;;;1.67;1.00;;;;;;;;5104746;27;61816;-77
2022/09/18 13:13:10;;;;;;;;;0.00;0.00;;;;;;;;5106521;27;61738;-77
2022/09/18 13:15:41;;;;;;;;;1.00;0.00;;;;;;;;5103642;27;64719;-80
2022/09/18 13:18:13;;;;;;;;;0.00;0.00;;;;;;;;5104569;27;61744;-79
2022/09/18 13:20:41;;;;;;;;;2.00;1.00;;;;;;;;5106048;27;61753;-79
2022/09/18 13:23:14;;;;;;;;;1.00;0.00;;;;;;;;5102298;27;62068;-78
2022/09/18 13:25:40;;;;;;;;;0.33;0.33;;;;;;;;5104636;27;63093;-78
2022/09/18 13:28:11;;;;;;;;;0.67;0.67;;;;;;;;5104700;27;62049;-78
2022/09/18 13:30:36;;;;;;;;;1.33;0.67;;;;;;;;5103135;27;62191;-78
2022/09/18 13:33:02;;;;;;;;;1.67;1.00;;;;;;;;5105834;27;62007;-78
2022/09/18 13:35:27;;;;;;;;;2.00;1.00;;;;;;;;5105221;27;61833;-79
2022/09/18 13:38:22;;;;;;;;;0.67;0.67;;;;;;;;5104581;27;61757;-81
2022/09/18 13:40:54;;;;;;;;;1.00;1.00;;;;;;;;5086703;27;61838;-79
2022/09/18 13:43:23;;;;;;;;;1.00;0.33;;;;;;;;5104692;27;61836;-79
2022/09/18 13:45:48;;;;;;;;;1.00;1.00;;;;;;;;5102605;27;63638;-81
2022/09/18 13:48:20;;;;;;;;;1.00;1.00;;;;;;;;5105127;27;61691;-79
2022/09/18 13:50:48;;;;;;;;;2.00;2.00;;;;;;;;5105495;27;62080;-76
2022/09/18 13:53:28;;;;;;;;;0.67;0.67;;;;;;;;5104017;27;62100;-77
2022/09/18 13:55:54;;;;;;;;;0.00;0.00;;;;;;;;5104938;27;61832;-75
2022/09/18 13:58:34;;;;;;;;;1.33;1.33;;;;;;;;5104207;27;61959;-76
2022/09/18 14:01:23;;;;;;;;;2.00;2.00;;;;;;;;5103439;27;61827;-78
2022/09/18 14:03:48;;;;;;;;;1.00;1.00;;;;;;;;5105945;27;61691;-78
2022/09/18 14:06:32;;;;;;;;;2.00;2.00;;;;;;;;5102975;27;63772;-78
2022/09/18 14:08:57;;;;;;;;;6.67;3.67;;;;;;;;5129842;27;61843;-77
2022/09/18 14:11:24;;;;;;;;;4.00;3.00;;;;;;;;5103060;27;61937;-79
2022/09/18 14:13:54;;;;;;;;;2.00;2.00;;;;;;;;5105626;27;61792;-81
2022/09/18 14:16:20;;;;;;;;;0.67;0.67;;;;;;;;5101493;27;65063;-77
2022/09/18 14:18:45;;;;;;;;;1.67;1.67;;;;;;;;5102116;27;61945;-77
2022/09/18 14:21:16;;;;;;;;;1.00;1.00;;;;;;;;5104857;27;62216;-76
2022/09/18 14:23:44;;;;;;;;;0.00;0.00;;;;;;;;5100646;27;62299;-75
2022/09/18 14:26:32;;;;;;;;;1.33;1.33;;;;;;;;5104134;27;62895;-78
2022/09/18 14:29:10;;;;;;;;;2.67;1.00;;;;;;;;5102523;27;62124;-76
2022/09/18 14:31:43;;;;;;;;;0.00;0.00;;;;;;;;5103202;27;61969;-78
2022/09/18 14:34:11;;;;;;;;;1.00;0.00;;;;;;;;5102837;27;61765;-78
2022/09/18 14:36:47;;;;;;;;;1.00;1.00;;;;;;;;5101167;27;64798;-77
2022/09/18 14:39:26;;;;;;;;;2.67;0.00;;;;;;;;5099457;27;62011;-76
2022/09/18 14:42:03;;;;;;;;;1.00;1.00;;;;;;;;5098862;27;61946;-77
2022/09/18 14:44:29;;;;;;;;;0.00;0.00;;;;;;;;5100921;27;61839;-76
2022/09/18 14:46:59;;;;;;;;;0.33;0.33;;;;;;;;5101636;27;61907;-76
2022/09/18 14:49:43;;;;;;;;;1.00;0.67;;;;;;;;5099786;27;61905;-76
2022/09/18 14:52:23;;;;;;;;;1.00;1.00;;;;;;;;5101206;27;61910;-76
2022/09/18 14:54:49;;;;;;;;;0.00;0.00;;;;;;;;5100288;27;62193;-77